Strona główna
Zdjęcia satelitarne 10-dni prognozyKlimatMeteorologia morska Cyklony Błyskawica LotniskoFAQ Gazetka O
Pogoda : Europa Afryka Ameryka Północna Ameryka Południowa Azja Australia-Oceania Inny
Języki Kontakt

Albert, Francja

Szerokość geograficzna: 49-58-21N, Długość geograficzna: 002-41-29E, wysokość: 111 m


METAR: LFAQ 191700Z AUTO 03014KT 9999 NSC 13/03 Q1020
TAF: LFAQ 191400Z 1915/1924 04012KT CAVOK

czas: 19:33 (17:33 UTC)

Aktualna obserwacja pogody

Raport powstał 33 minut temu, godzina 17:00 UTC
Wiatr 14 kt od północno-północny wschód
Temperatura 13°C
Wilgotność 51%
Ciśnienie 1020 hPa
Widzialność 10 km lub więcej

Jednostka miary

Prognoza

Raport powstał 3 godziny i 33 minut temu, godzina 14:00 UTC
Prognoza ważna od 19 godzina 15 UTC do 19 godzina 24 UTC
Wiatr 12 kt od północny wschód
Widzialność 10 km lub więcej
Brak chmur poniżej 1500 m i brak chmur cumulonimbus
Informacje na tej stronie internetowej podlegają klauzuli o wyłączeniu odpowiedzialności
Pogoda : Europa Afryka Ameryka Północna Ameryka Południowa Azja Australia-Oceania Inny
Zdjęcia satelitarne 10-dni prognozyKlimatMeteorologia morska Cyklony Błyskawica LotniskoFAQ Języki Kontakt Gazetka O